Portland Troutdale Airport
KTTD : now visible

Airfield :











YOU CAN JOIN US ON...

 
LOGIN :

Register | Disclaimer

   EN    FR    IT 

 









Legend :    VFR   Marginal VFR   IFR   Intensive IFR   Very Intensive IFR
Visi :
Ceiling :
>= 8 km
>= 3000ft
5 to 8 km
1000 to 3000 ft
1500m to 5 km
500 to 1000 ft
800 to 1500m
200 to 500 ft
< 800m
< 200 ft
Symbols :   Thunderstorms  Fog  Heavy snow  Heavy precipitations  Wind > 20 kt






- Airport Elevation : 39 ft


KTTD - Portland Troutdale

CURRENT METAR :
  • 110553Z AUTO 08014KT 6SM -RA BR OVC017 05/03 A3013 RMK AO2 SLP204 P0001 60010 T00500028 10056 20050 55004

EXPIRED METARs :
  • 110453Z 09013KT 7SM -RA OVC020 05/03 A3013 RMK AO2 SLP204 P0001 T00500028
  • 110353Z 09015G19KT 9SM -RA OVC025 06/03 A3014 RMK AO2 SLP205 P0002 T00560028
  • 110309Z 09012KT 8SM -RA OVC028 06/03 A3015 RMK AO2 P0001 T00560028

TAF KTTD
Valid from the 11 at 06:00 until the 12 at 06:00 UTC


110540Z 1106/1206 09013KT P6SM -RA OVC020
FM110900 09011KT P6SM VCSH OVC010
FM112100 10010G15KT 6SM -RA OVC035
FM112300 10013G20KT 4SM -RA OVC050
FM120400 10013KT 4SM -RA OVC025



MET'MAP, your aeronautical weather chart ! - Copyright ORBIFLY December 2007 - Disclaimer

ORBIFLY MET'MAP TEAM :

Programming & Development : Alexandra Zaïnal
Concept & original design : Baudouin d'Aumeries
Assistance for programming : Marc-Olivier Méhu
Technical & hardware support : Manuel Goepfert

Contact : metmap@orbifly.com




SOURCES & CREDITS :

   NOAA       Earth
Advisory